KBOI/BOI METAR and TAF weather

Enter ICAO airport designator
Station Type Date Time Source
KBOI METAR 2019/04/19 21:53 UTC NOAA

KBOI 192153Z 13011G16KT 10SM CLR 28/04 A2986 RMK AO2 SLP089 T02780039


Station Type Date Time Source
KBOI Decoded METAR 2019/04/19 21:53 UTC NOAA

BOISE AIR TERMINAL, ID, United States (KBOI) 43-34N 116-14W 875M
Apr 19, 2019 - 05:53 PM EDT / 2019.04.19 2153 UTC
Wind: from the SE (130 degrees) at 13 MPH (11 KT) gusting to 18 MPH (16 KT):0
Visibility: 10 mile(s):0
Sky conditions: clear
Temperature: 82.0 F (27.8 C)
Dew Point: 39.0 F (3.9 C)
Relative Humidity: 21%
Pressure (altimeter): 29.86 in. Hg (1011 hPa)
ob: KBOI 192153Z 13011G16KT 10SM CLR 28/04 A2986 RMK AO2 SLP089 T02780039
cycle: 22

Station Type Date Time Source
KBOI TAF 2019/04/19 18:45 UTC NOAA

TAF KBOI 191742Z 1918/2018 13010KT P6SM SCT150
FM200900 32010KT P6SM OVC090

Example: see airport list